Time;durP1;ratioP1;P1;durP2;ratioP2;P2;SDS_P1;SDS_P2;PMS_P1;PMS_P2;Temp;Humidity;BMP_temperature;BMP_pressure;BME280_temperature;BME280_humidity;BME280_pressure;Samples;Min_cycle;Max_cycle;Signal;HPM_P1;HPM_P2
2022/03/25 00:01:31;;;;;;;45.80;28.52;;;;;;;;;;5092407;28;20043;-59
2022/03/25 00:03:57;;;;;;;44.70;28.58;;;;;;;;;;5096961;28;20134;-58
2022/03/25 00:06:26;;;;;;;47.67;29.10;;;;;;;;;;5093019;28;20193;-59
2022/03/25 00:08:52;;;;;;;45.50;27.95;;;;;;;;;;5093793;27;20110;-58
2022/03/25 00:11:18;;;;;;;43.45;28.70;;;;;;;;;;5095528;28;20023;-59
2022/03/25 00:13:44;;;;;;;50.47;30.08;;;;;;;;;;5095747;28;20027;-58
2022/03/25 00:16:10;;;;;;;43.78;26.80;;;;;;;;;;5093743;28;20040;-59
2022/03/25 00:18:36;;;;;;;46.15;28.55;;;;;;;;;;5095653;28;20030;-58
2022/03/25 00:21:02;;;;;;;48.13;28.50;;;;;;;;;;5093726;28;20130;-59
2022/03/25 00:23:28;;;;;;;51.50;28.15;;;;;;;;;;5095735;28;20047;-59
2022/03/25 00:25:56;;;;;;;46.30;28.48;;;;;;;;;;5095866;28;20042;-58
2022/03/25 00:28:22;;;;;;;53.35;30.08;;;;;;;;;;5095366;28;20031;-58
2022/03/25 00:30:49;;;;;;;45.83;28.80;;;;;;;;;;5095106;28;20027;-59
2022/03/25 00:33:15;;;;;;;50.15;29.15;;;;;;;;;;5094736;28;20084;-59
2022/03/25 00:35:42;;;;;;;50.55;29.58;;;;;;;;;;5098165;28;20196;-58
2022/03/25 00:38:08;;;;;;;53.33;30.60;;;;;;;;;;5100454;28;20017;-59
2022/03/25 00:40:34;;;;;;;48.97;30.83;;;;;;;;;;5098643;28;20347;-59
2022/03/25 00:43:00;;;;;;;47.67;30.63;;;;;;;;;;5097593;28;20012;-59
2022/03/25 00:45:28;;;;;;;49.17;29.45;;;;;;;;;;5097442;28;20040;-59
2022/03/25 00:47:55;;;;;;;53.50;30.48;;;;;;;;;;5095547;28;20072;-59
2022/03/25 00:50:21;;;;;;;52.90;30.40;;;;;;;;;;5099706;28;20498;-59
2022/03/25 00:52:47;;;;;;;49.90;29.88;;;;;;;;;;5099714;28;20443;-59
2022/03/25 00:55:13;;;;;;;50.85;30.30;;;;;;;;;;5093765;28;20146;-58
2022/03/25 00:57:39;;;;;;;53.85;30.75;;;;;;;;;;5108755;27;20015;-57
2022/03/25 01:00:05;;;;;;;58.28;31.13;;;;;;;;;;5096474;28;20054;-59
2022/03/25 01:02:31;;;;;;;53.90;30.25;;;;;;;;;;5097993;28;20486;-59
2022/03/25 01:04:57;;;;;;;52.25;30.58;;;;;;;;;;5098770;28;20031;-59
2022/03/25 01:07:23;;;;;;;50.65;30.05;;;;;;;;;;5101068;28;20016;-58
2022/03/25 01:09:49;;;;;;;46.90;28.80;;;;;;;;;;5099052;28;20078;-58
2022/03/25 01:12:16;;;;;;;53.35;30.52;;;;;;;;;;5098499;28;20553;-58
2022/03/25 01:14:42;;;;;;;51.58;31.45;;;;;;;;;;5095287;28;20027;-60
2022/03/25 01:17:08;;;;;;;51.55;30.88;;;;;;;;;;5093368;28;20050;-59
2022/03/25 01:19:34;;;;;;;52.03;30.50;;;;;;;;;;5096585;28;20019;-59
2022/03/25 01:22:03;;;;;;;50.80;30.27;;;;;;;;;;5095240;28;20323;-59
2022/03/25 01:24:29;;;;;;;50.03;29.65;;;;;;;;;;5088780;28;20028;-59
2022/03/25 01:26:55;;;;;;;54.17;32.03;;;;;;;;;;5088899;28;20020;-59
2022/03/25 01:29:21;;;;;;;48.03;29.70;;;;;;;;;;5098882;28;20323;-60
2022/03/25 01:31:48;;;;;;;49.72;31.33;;;;;;;;;;5094506;28;20107;-59
2022/03/25 01:34:15;;;;;;;52.20;30.33;;;;;;;;;;5094883;28;20016;-59
2022/03/25 01:36:41;;;;;;;48.92;29.73;;;;;;;;;;5099630;28;20012;-59
2022/03/25 01:39:07;;;;;;;53.78;31.80;;;;;;;;;;5095052;28;20036;-58
2022/03/25 01:41:33;;;;;;;49.47;30.10;;;;;;;;;;5097919;28;20023;-59
2022/03/25 01:44:00;;;;;;;54.17;31.73;;;;;;;;;;5100196;28;20019;-59
2022/03/25 01:46:27;;;;;;;53.25;30.88;;;;;;;;;;5096318;28;20031;-58
2022/03/25 01:48:53;;;;;;;53.65;30.48;;;;;;;;;;5100947;28;20027;-59
2022/03/25 01:51:21;;;;;;;50.33;31.17;;;;;;;;;;5100192;28;20024;-59
2022/03/25 01:53:47;;;;;;;50.03;30.45;;;;;;;;;;5097208;28;20043;-58
2022/03/25 01:56:19;;;;;;;51.17;31.95;;;;;;;;;;5095908;28;20020;-58
2022/03/25 01:58:45;;;;;;;52.53;31.58;;;;;;;;;;5098409;28;20063;-58
2022/03/25 02:01:11;;;;;;;54.13;31.77;;;;;;;;;;5099270;28;20058;-59
2022/03/25 02:03:37;;;;;;;53.53;31.17;;;;;;;;;;5100337;28;20038;-59
2022/03/25 02:06:04;;;;;;;59.22;32.55;;;;;;;;;;5097750;28;20533;-59
2022/03/25 02:08:30;;;;;;;51.58;31.50;;;;;;;;;;5098981;28;20008;-57
2022/03/25 02:10:56;;;;;;;52.67;31.83;;;;;;;;;;5096217;28;20024;-58
2022/03/25 02:13:23;;;;;;;51.67;30.90;;;;;;;;;;5094753;28;20031;-58
2022/03/25 02:15:49;;;;;;;50.75;30.17;;;;;;;;;;5095241;28;20495;-58
2022/03/25 02:18:18;;;;;;;60.15;33.67;;;;;;;;;;5096684;28;20818;-59
2022/03/25 02:20:44;;;;;;;51.55;31.70;;;;;;;;;;5098413;28;20019;-58
2022/03/25 02:23:11;;;;;;;60.08;33.97;;;;;;;;;;5095721;28;20049;-58
2022/03/25 02:25:41;;;;;;;59.83;35.30;;;;;;;;;;5097416;28;20036;-59
2022/03/25 02:28:07;;;;;;;60.38;32.90;;;;;;;;;;5097879;28;20019;-58
2022/03/25 02:30:34;;;;;;;57.78;34.20;;;;;;;;;;5098822;28;20415;-58
2022/03/25 02:33:02;;;;;;;62.42;35.50;;;;;;;;;;5098338;28;20455;-59
2022/03/25 02:35:40;;;;;;;56.15;34.25;;;;;;;;;;5095987;28;20099;-58
2022/03/25 02:38:07;;;;;;;58.30;35.30;;;;;;;;;;5096815;28;20420;-59
2022/03/25 02:40:33;;;;;;;57.63;34.65;;;;;;;;;;5096969;28;20023;-58
2022/03/25 02:42:59;;;;;;;64.45;36.80;;;;;;;;;;5097556;28;20054;-59
2022/03/25 02:45:25;;;;;;;67.00;37.20;;;;;;;;;;5092411;28;20035;-58
2022/03/25 02:47:51;;;;;;;63.33;37.92;;;;;;;;;;5098064;28;20234;-58
2022/03/25 02:50:17;;;;;;;69.88;36.63;;;;;;;;;;5091467;28;20027;-58
2022/03/25 02:52:43;;;;;;;70.38;39.10;;;;;;;;;;5097878;28;20126;-58
2022/03/25 02:55:10;;;;;;;64.28;38.45;;;;;;;;;;5094748;28;20016;-58
2022/03/25 02:57:36;;;;;;;73.40;39.92;;;;;;;;;;5099097;28;20027;-59
2022/03/25 03:00:04;;;;;;;70.25;39.28;;;;;;;;;;5096959;28;20094;-58
2022/03/25 03:02:30;;;;;;;65.90;37.60;;;;;;;;;;5093883;28;20028;-58
2022/03/25 03:04:56;;;;;;;75.55;41.47;;;;;;;;;;5097617;28;20044;-59
2022/03/25 03:07:22;;;;;;;64.25;37.85;;;;;;;;;;5096383;28;20065;-59
2022/03/25 03:09:48;;;;;;;71.72;40.05;;;;;;;;;;5097195;28;20030;-59
2022/03/25 03:12:14;;;;;;;63.65;38.92;;;;;;;;;;5097601;28;20137;-59
2022/03/25 03:14:40;;;;;;;69.38;40.33;;;;;;;;;;5098631;28;20019;-58
2022/03/25 03:17:06;;;;;;;67.50;39.63;;;;;;;;;;5096840;28;20283;-58
2022/03/25 03:19:32;;;;;;;70.15;39.95;;;;;;;;;;5097887;28;20011;-59
2022/03/25 03:21:58;;;;;;;64.38;38.88;;;;;;;;;;5093238;28;20038;-59
2022/03/25 03:24:24;;;;;;;76.32;42.22;;;;;;;;;;5095379;28;20023;-59
2022/03/25 03:26:52;;;;;;;70.78;39.58;;;;;;;;;;5095930;28;20446;-58
2022/03/25 03:29:18;;;;;;;70.78;41.28;;;;;;;;;;5098918;28;20032;-59
2022/03/25 03:31:44;;;;;;;75.70;40.90;;;;;;;;;;5102087;28;20123;-59
2022/03/25 03:34:10;;;;;;;66.68;38.75;;;;;;;;;;5101707;28;20474;-58
2022/03/25 03:36:36;;;;;;;73.05;41.95;;;;;;;;;;5101112;28;20024;-59
2022/03/25 03:39:02;;;;;;;69.78;41.58;;;;;;;;;;5101744;28;20016;-58
2022/03/25 03:41:28;;;;;;;68.43;39.58;;;;;;;;;;5102482;28;20395;-59
2022/03/25 03:43:55;;;;;;;70.88;39.78;;;;;;;;;;5101812;28;20790;-59
2022/03/25 03:46:21;;;;;;;76.47;43.55;;;;;;;;;;5101050;27;20026;-58
2022/03/25 03:48:47;;;;;;;71.10;41.05;;;;;;;;;;5099863;28;20101;-58
2022/03/25 03:51:13;;;;;;;75.38;39.70;;;;;;;;;;5100454;28;20666;-58
2022/03/25 03:53:39;;;;;;;64.13;38.35;;;;;;;;;;5095673;28;20175;-58
2022/03/25 03:56:06;;;;;;;68.57;39.45;;;;;;;;;;5097544;28;20035;-58
2022/03/25 03:58:32;;;;;;;70.43;42.25;;;;;;;;;;5101403;28;20011;-59
2022/03/25 04:00:58;;;;;;;68.60;40.55;;;;;;;;;;5100581;28;20034;-58
2022/03/25 04:03:23;;;;;;;73.32;41.35;;;;;;;;;;5101130;28;20490;-59
2022/03/25 04:05:49;;;;;;;70.10;40.58;;;;;;;;;;5100791;28;20024;-58
2022/03/25 04:08:15;;;;;;;71.88;40.00;;;;;;;;;;5099853;28;20030;-58
2022/03/25 04:10:41;;;;;;;68.05;40.60;;;;;;;;;;5096570;28;20112;-58
2022/03/25 04:13:08;;;;;;;74.70;40.50;;;;;;;;;;5099163;28;20220;-58
2022/03/25 04:15:34;;;;;;;68.90;40.15;;;;;;;;;;5095568;28;20491;-58
2022/03/25 04:18:00;;;;;;;68.80;39.22;;;;;;;;;;5097559;28;20102;-59
2022/03/25 04:20:27;;;;;;;71.63;40.13;;;;;;;;;;5099944;28;20019;-58
2022/03/25 04:22:53;;;;;;;75.55;42.65;;;;;;;;;;5096166;28;20039;-58
2022/03/25 04:25:19;;;;;;;67.95;39.15;;;;;;;;;;5092080;28;20102;-57
2022/03/25 04:27:46;;;;;;;69.30;39.42;;;;;;;;;;5098090;28;20180;-59
2022/03/25 04:30:12;;;;;;;72.90;39.67;;;;;;;;;;5099312;28;20023;-59
2022/03/25 04:32:38;;;;;;;72.47;41.33;;;;;;;;;;5097912;28;20259;-57
2022/03/25 04:35:04;;;;;;;74.43;38.88;;;;;;;;;;5094714;28;20037;-58
2022/03/25 04:37:30;;;;;;;72.55;41.83;;;;;;;;;;5100876;28;20051;-57
2022/03/25 04:39:56;;;;;;;73.93;39.70;;;;;;;;;;5094204;28;20369;-59
2022/03/25 04:42:22;;;;;;;76.43;41.30;;;;;;;;;;5097125;28;20020;-58
2022/03/25 04:44:48;;;;;;;69.05;40.60;;;;;;;;;;5098668;28;20031;-59
2022/03/25 04:47:14;;;;;;;77.25;41.03;;;;;;;;;;5100106;28;20027;-58
2022/03/25 04:49:40;;;;;;;69.45;39.25;;;;;;;;;;5099455;28;20097;-58
2022/03/25 04:52:07;;;;;;;70.25;39.97;;;;;;;;;;5098836;28;20489;-58
2022/03/25 04:54:33;;;;;;;70.80;41.28;;;;;;;;;;5099392;28;20185;-58
2022/03/25 04:56:59;;;;;;;75.68;41.15;;;;;;;;;;5097491;28;20550;-58
2022/03/25 04:59:25;;;;;;;75.95;40.72;;;;;;;;;;5100287;28;20039;-58
2022/03/25 05:01:51;;;;;;;74.13;40.33;;;;;;;;;;5097590;28;20383;-58
2022/03/25 05:04:17;;;;;;;70.65;40.28;;;;;;;;;;5096529;28;20012;-59
2022/03/25 05:06:43;;;;;;;76.35;41.75;;;;;;;;;;5098772;28;20423;-58
2022/03/25 05:09:10;;;;;;;74.32;42.15;;;;;;;;;;5100552;28;20012;-59
2022/03/25 05:11:37;;;;;;;72.50;40.35;;;;;;;;;;5097502;28;20077;-59
2022/03/25 05:14:03;;;;;;;69.30;40.00;;;;;;;;;;5094865;28;20012;-59
2022/03/25 05:16:29;;;;;;;72.70;41.00;;;;;;;;;;5099314;28;20034;-58
2022/03/25 05:18:55;;;;;;;75.75;43.38;;;;;;;;;;5093758;28;20654;-59
2022/03/25 05:21:21;;;;;;;77.40;42.25;;;;;;;;;;5097956;28;20034;-58
2022/03/25 05:23:47;;;;;;;78.20;41.70;;;;;;;;;;5097023;28;20055;-58
2022/03/25 05:26:13;;;;;;;87.03;44.20;;;;;;;;;;5098600;28;20606;-59
2022/03/25 05:28:39;;;;;;;78.80;43.30;;;;;;;;;;5096732;28;20031;-59
2022/03/25 05:31:05;;;;;;;75.13;41.03;;;;;;;;;;5096828;28;20120;-59
2022/03/25 05:33:31;;;;;;;76.22;41.65;;;;;;;;;;5096093;28;20018;-58
2022/03/25 05:35:57;;;;;;;78.60;42.90;;;;;;;;;;5094799;28;20778;-58
2022/03/25 05:38:23;;;;;;;77.90;42.03;;;;;;;;;;5094846;28;20619;-58
2022/03/25 05:40:49;;;;;;;73.13;42.15;;;;;;;;;;5092500;28;20102;-58
2022/03/25 05:43:15;;;;;;;79.75;42.03;;;;;;;;;;5091875;28;20048;-58
2022/03/25 05:45:41;;;;;;;77.70;42.20;;;;;;;;;;5096812;28;20263;-58
2022/03/25 05:48:08;;;;;;;74.28;42.78;;;;;;;;;;5096743;28;20031;-58
2022/03/25 05:50:34;;;;;;;74.82;41.58;;;;;;;;;;5096882;28;20534;-58
2022/03/25 05:53:00;;;;;;;79.10;43.95;;;;;;;;;;5094154;28;20051;-59
2022/03/25 05:55:26;;;;;;;68.53;40.47;;;;;;;;;;5093594;28;20028;-58
2022/03/25 05:57:52;;;;;;;79.90;43.03;;;;;;;;;;5092289;28;20103;-58
2022/03/25 06:00:18;;;;;;;75.10;41.47;;;;;;;;;;5096026;28;20098;-58
2022/03/25 06:02:45;;;;;;;79.78;44.80;;;;;;;;;;5094632;28;20430;-58
2022/03/25 06:05:11;;;;;;;80.22;43.70;;;;;;;;;;5095726;28;20030;-58
2022/03/25 06:07:38;;;;;;;81.15;43.80;;;;;;;;;;5091492;28;20107;-58
2022/03/25 06:10:05;;;;;;;77.53;45.08;;;;;;;;;;5092329;28;20362;-59
2022/03/25 06:12:32;;;;;;;79.63;44.63;;;;;;;;;;5090462;28;20296;-58
2022/03/25 06:14:58;;;;;;;82.65;45.38;;;;;;;;;;5090610;28;20449;-58
2022/03/25 06:17:24;;;;;;;82.70;45.20;;;;;;;;;;5093971;28;20421;-57
2022/03/25 06:19:50;;;;;;;82.10;45.15;;;;;;;;;;5092494;28;20027;-58
2022/03/25 06:22:16;;;;;;;87.00;46.53;;;;;;;;;;5092450;28;20484;-58
2022/03/25 06:24:42;;;;;;;89.85;48.35;;;;;;;;;;5093929;28;20127;-58
2022/03/25 06:27:07;;;;;;;87.47;46.58;;;;;;;;;;5096096;28;20365;-56
2022/03/25 06:29:34;;;;;;;151.65;83.97;;;;;;;;;;5098336;28;20019;-55
2022/03/25 06:32:00;;;;;;;100.55;54.97;;;;;;;;;;5097095;28;20443;-55
2022/03/25 06:34:26;;;;;;;102.40;54.15;;;;;;;;;;5099975;28;20027;-55
2022/03/25 06:36:52;;;;;;;99.55;54.33;;;;;;;;;;5092363;28;20031;-56
2022/03/25 06:39:18;;;;;;;100.57;55.35;;;;;;;;;;5088926;28;20015;-55
2022/03/25 06:41:44;;;;;;;104.28;54.50;;;;;;;;;;5092816;28;20058;-56
2022/03/25 06:44:10;;;;;;;102.95;55.20;;;;;;;;;;5091267;28;20155;-54
2022/03/25 06:46:37;;;;;;;105.13;54.97;;;;;;;;;;5093424;28;20456;-56
2022/03/25 06:49:03;;;;;;;105.75;57.42;;;;;;;;;;5088740;28;20039;-56
2022/03/25 06:51:29;;;;;;;102.05;55.30;;;;;;;;;;5090906;28;20085;-55
2022/03/25 06:53:55;;;;;;;105.57;55.88;;;;;;;;;;5092507;28;20039;-55
2022/03/25 06:56:21;;;;;;;106.70;56.97;;;;;;;;;;5090136;28;20432;-53
2022/03/25 06:58:47;;;;;;;110.00;56.72;;;;;;;;;;5089718;28;20119;-55
2022/03/25 07:01:14;;;;;;;109.43;57.25;;;;;;;;;;5083689;28;20112;-56
2022/03/25 07:03:40;;;;;;;105.85;55.90;;;;;;;;;;5089318;28;20054;-55
2022/03/25 07:06:07;;;;;;;104.03;57.42;;;;;;;;;;5095275;28;20110;-55
2022/03/25 07:08:34;;;;;;;108.13;57.17;;;;;;;;;;5099008;28;20034;-56
2022/03/25 07:11:01;;;;;;;101.43;56.63;;;;;;;;;;5099522;28;20088;-55
2022/03/25 07:13:28;;;;;;;102.78;53.38;;;;;;;;;;5099177;28;20023;-55
2022/03/25 07:15:54;;;;;;;109.50;57.95;;;;;;;;;;5096715;28;20023;-55
2022/03/25 07:18:21;;;;;;;105.28;54.67;;;;;;;;;;5095863;28;20502;-55
2022/03/25 07:20:47;;;;;;;99.57;55.83;;;;;;;;;;5097555;28;20038;-55
2022/03/25 07:23:13;;;;;;;105.10;55.85;;;;;;;;;;5098118;28;20032;-54
2022/03/25 07:25:39;;;;;;;103.72;57.35;;;;;;;;;;5097382;28;20032;-55
2022/03/25 07:28:05;;;;;;;103.00;58.63;;;;;;;;;;5092208;28;20033;-54
2022/03/25 07:30:31;;;;;;;96.57;55.65;;;;;;;;;;5097465;28;20072;-56
2022/03/25 07:32:58;;;;;;;101.97;56.80;;;;;;;;;;5098519;28;20080;-54
2022/03/25 07:35:24;;;;;;;106.90;57.92;;;;;;;;;;5102328;28;20118;-56
2022/03/25 07:37:50;;;;;;;100.35;55.40;;;;;;;;;;5097445;27;20031;-55
2022/03/25 07:40:17;;;;;;;103.95;57.45;;;;;;;;;;5098980;28;20031;-55
2022/03/25 07:42:43;;;;;;;102.32;57.83;;;;;;;;;;5100382;28;20024;-55
2022/03/25 07:45:10;;;;;;;100.25;56.55;;;;;;;;;;5098353;28;20100;-55
2022/03/25 07:47:43;;;;;;;104.18;57.33;;;;;;;;;;5099671;28;20160;-54
2022/03/25 07:50:11;;;;;;;106.65;60.03;;;;;;;;;;5097361;27;20126;-56
2022/03/25 07:52:37;;;;;;;101.95;56.90;;;;;;;;;;5098700;28;20099;-55
2022/03/25 07:55:03;;;;;;;107.35;57.85;;;;;;;;;;5096243;28;20127;-55
2022/03/25 07:57:29;;;;;;;99.03;57.35;;;;;;;;;;5096854;28;20045;-56
2022/03/25 07:59:55;;;;;;;101.47;59.13;;;;;;;;;;5093980;28;20020;-56
2022/03/25 08:02:21;;;;;;;101.90;58.88;;;;;;;;;;5095186;28;20046;-56
2022/03/25 08:04:47;;;;;;;153.18;94.75;;;;;;;;;;5095766;28;20124;-55
2022/03/25 08:07:13;;;;;;;104.35;61.17;;;;;;;;;;5092589;28;20118;-55
2022/03/25 08:09:39;;;;;;;102.25;57.95;;;;;;;;;;5095243;28;20127;-55
2022/03/25 08:12:06;;;;;;;100.90;58.40;;;;;;;;;;5099231;28;20442;-54
2022/03/25 08:14:32;;;;;;;99.32;57.10;;;;;;;;;;5100102;27;20075;-55
2022/03/25 08:16:58;;;;;;;101.70;55.40;;;;;;;;;;5100404;28;20428;-55
2022/03/25 08:19:25;;;;;;;92.45;55.50;;;;;;;;;;5101509;28;20024;-55
2022/03/25 08:21:50;;;;;;;95.72;56.65;;;;;;;;;;5098192;28;20108;-55
2022/03/25 08:29:46;;;;;;;91.57;53.05;;;;;;;;;;5098442;28;20046;-56
2022/03/25 08:32:13;;;;;;;84.47;52.90;;;;;;;;;;5098289;28;20046;-56
2022/03/25 08:34:39;;;;;;;86.47;52.58;;;;;;;;;;5099694;28;20046;-56
2022/03/25 08:37:05;;;;;;;90.82;53.03;;;;;;;;;;5097989;28;20588;-55
2022/03/25 08:39:31;;;;;;;83.28;50.42;;;;;;;;;;5102311;28;20084;-55
2022/03/25 08:41:57;;;;;;;96.43;52.50;;;;;;;;;;5097508;28;20338;-55
2022/03/25 08:44:23;;;;;;;90.82;54.05;;;;;;;;;;5095943;28;20075;-55
2022/03/25 08:46:49;;;;;;;91.03;53.72;;;;;;;;;;5097885;28;20111;-56
2022/03/25 08:49:15;;;;;;;93.20;53.63;;;;;;;;;;5097642;28;20092;-56
2022/03/25 08:51:41;;;;;;;87.13;52.25;;;;;;;;;;5102792;28;20088;-56
2022/03/25 08:54:08;;;;;;;88.78;52.42;;;;;;;;;;5096341;28;20114;-56
2022/03/25 08:56:34;;;;;;;74.55;44.65;;;;;;;;;;5095572;28;20411;-55
2022/03/25 08:59:00;;;;;;;79.63;45.17;;;;;;;;;;5097473;28;20020;-55
2022/03/25 09:01:26;;;;;;;82.53;45.55;;;;;;;;;;5102518;28;20054;-56
2022/03/25 09:03:52;;;;;;;79.97;45.50;;;;;;;;;;5101470;28;20027;-56
2022/03/25 09:06:18;;;;;;;72.85;45.08;;;;;;;;;;5101088;28;20030;-53
2022/03/25 09:08:44;;;;;;;68.95;43.03;;;;;;;;;;5098626;28;20336;-56
2022/03/25 09:11:10;;;;;;;73.82;44.33;;;;;;;;;;5096566;28;20050;-56
2022/03/25 09:13:37;;;;;;;73.88;43.97;;;;;;;;;;5096232;28;20122;-56
2022/03/25 09:16:03;;;;;;;79.22;43.28;;;;;;;;;;5097605;28;20103;-56
2022/03/25 09:18:29;;;;;;;77.32;43.75;;;;;;;;;;5100046;27;20114;-55
2022/03/25 09:20:55;;;;;;;67.03;42.42;;;;;;;;;;5095933;28;20115;-56
2022/03/25 09:23:21;;;;;;;78.13;42.85;;;;;;;;;;5101453;28;20035;-56
2022/03/25 09:25:47;;;;;;;73.07;42.70;;;;;;;;;;5098335;28;20370;-56
2022/03/25 09:28:13;;;;;;;75.75;43.13;;;;;;;;;;5101661;27;20039;-55
2022/03/25 09:30:39;;;;;;;71.70;39.92;;;;;;;;;;5098424;28;20038;-56
2022/03/25 09:33:07;;;;;;;68.15;41.55;;;;;;;;;;5101624;28;20168;-56
2022/03/25 09:35:33;;;;;;;74.15;40.70;;;;;;;;;;5101285;28;20118;-56
2022/03/25 09:37:59;;;;;;;74.03;40.33;;;;;;;;;;5100557;28;20019;-56
2022/03/25 09:40:26;;;;;;;74.57;42.03;;;;;;;;;;5098257;28;20030;-54
2022/03/25 09:42:53;;;;;;;70.38;40.70;;;;;;;;;;5101073;28;20404;-55
2022/03/25 09:45:20;;;;;;;71.35;40.88;;;;;;;;;;5101394;28;20079;-55
2022/03/25 09:47:47;;;;;;;73.10;40.65;;;;;;;;;;5102248;28;20448;-55
2022/03/25 09:50:14;;;;;;;70.50;41.25;;;;;;;;;;5097631;28;20619;-55
2022/03/25 09:52:44;;;;;;;76.68;42.67;;;;;;;;;;5098382;28;20038;-56
2022/03/25 09:55:10;;;;;;;69.18;39.60;;;;;;;;;;5096345;28;20035;-55
2022/03/25 09:57:36;;;;;;;71.50;39.65;;;;;;;;;;5102209;28;20020;-55
2022/03/25 10:00:04;;;;;;;72.70;41.10;;;;;;;;;;5095310;28;20217;-56
2022/03/25 10:02:30;;;;;;;68.88;40.80;;;;;;;;;;5101031;28;20422;-55
2022/03/25 10:04:57;;;;;;;77.95;43.25;;;;;;;;;;5098451;28;20083;-55
2022/03/25 10:07:25;;;;;;;69.00;41.72;;;;;;;;;;5096684;28;20047;-55
2022/03/25 10:10:10;;;;;;;70.65;42.25;;;;;;;;;;5092832;28;20105;-56
2022/03/25 10:12:37;;;;;;;75.90;44.30;;;;;;;;;;5098196;28;20065;-56
2022/03/25 10:15:12;;;;;;;68.20;42.75;;;;;;;;;;5092518;28;20502;-55
2022/03/25 10:17:46;;;;;;;62.03;36.88;;;;;;;;;;5093608;28;20526;-55
2022/03/25 10:20:11;;;;;;;60.30;36.97;;;;;;;;;;5093065;28;20050;-56
2022/03/25 10:22:38;;;;;;;62.08;35.75;;;;;;;;;;5094126;28;20055;-56
2022/03/25 10:25:09;;;;;;;60.97;36.60;;;;;;;;;;5093259;28;20697;-56
2022/03/25 10:27:35;;;;;;;63.20;37.92;;;;;;;;;;5095387;28;20062;-55
2022/03/25 10:30:03;;;;;;;61.70;38.25;;;;;;;;;;5098218;28;20059;-56
2022/03/25 10:32:29;;;;;;;57.85;36.80;;;;;;;;;;5099990;28;20352;-56
2022/03/25 10:35:09;;;;;;;63.58;38.85;;;;;;;;;;5100362;28;20031;-55
2022/03/25 10:37:38;;;;;;;64.15;37.63;;;;;;;;;;5097885;28;20431;-55
2022/03/25 10:40:08;;;;;;;66.05;37.95;;;;;;;;;;5099877;27;20053;-55
2022/03/25 10:42:36;;;;;;;62.50;38.85;;;;;;;;;;5100286;27;20023;-56
2022/03/25 10:45:22;;;;;;;66.70;38.13;;;;;;;;;;5101442;28;20019;-56
2022/03/25 10:47:48;;;;;;;60.80;38.70;;;;;;;;;;5101233;28;20227;-55
2022/03/25 10:50:14;;;;;;;68.07;39.10;;;;;;;;;;5098166;28;20364;-54
2022/03/25 10:52:41;;;;;;;66.85;38.47;;;;;;;;;;5105748;28;20055;-56
2022/03/25 10:55:21;;;;;;;62.08;33.55;;;;;;;;;;5104083;28;20981;-55
2022/03/25 10:57:51;;;;;;;54.55;32.78;;;;;;;;;;5099986;28;20050;-55
2022/03/25 11:00:17;;;;;;;59.40;33.65;;;;;;;;;;5100932;28;20023;-55
2022/03/25 11:02:47;;;;;;;55.15;30.80;;;;;;;;;;5103348;28;20028;-55
2022/03/25 11:05:13;;;;;;;53.25;30.88;;;;;;;;;;5101372;28;20434;-55
2022/03/25 11:07:41;;;;;;;42.83;22.60;;;;;;;;;;5101594;28;20046;-55
2022/03/25 11:10:07;;;;;;;39.83;23.58;;;;;;;;;;5100956;28;20035;-55
2022/03/25 11:12:33;;;;;;;43.83;24.90;;;;;;;;;;5097523;28;20031;-56
2022/03/25 11:15:00;;;;;;;38.15;23.63;;;;;;;;;;5100553;28;20084;-56
2022/03/25 11:17:27;;;;;;;49.80;26.52;;;;;;;;;;5092655;28;20027;-56
2022/03/25 11:19:54;;;;;;;45.72;22.35;;;;;;;;;;5098341;28;20103;-54
2022/03/25 11:22:21;;;;;;;40.72;22.98;;;;;;;;;;5101480;28;20455;-56
2022/03/25 11:24:49;;;;;;;37.58;22.35;;;;;;;;;;5098808;28;20054;-56
2022/03/25 11:27:41;;;;;;;42.33;24.45;;;;;;;;;;5100396;28;20123;-55
2022/03/25 11:30:16;;;;;;;42.45;24.90;;;;;;;;;;5094694;28;20036;-54
2022/03/25 11:33:09;;;;;;;53.75;27.52;;;;;;;;;;5098153;28;20031;-54
2022/03/25 11:35:35;;;;;;;;;;;;;;;;;;5095638;28;20035;-55
2022/03/25 11:38:11;;;;;;;42.58;23.58;;;;;;;;;;5095847;28;19911;-55
2022/03/25 11:40:42;;;;;;;37.28;21.52;;;;;;;;;;5099011;28;20144;-56
2022/03/25 11:43:14;;;;;;;42.13;22.77;;;;;;;;;;5100392;28;20058;-56
2022/03/25 11:45:40;;;;;;;34.97;18.92;;;;;;;;;;5094319;28;20022;-56
2022/03/25 11:48:06;;;;;;;36.45;18.85;;;;;;;;;;5098344;28;20106;-54
2022/03/25 11:50:36;;;;;;;39.35;19.08;;;;;;;;;;5096162;28;20016;-56
2022/03/25 11:53:23;;;;;;;39.67;19.20;;;;;;;;;;5097189;28;20656;-56
2022/03/25 11:56:00;;;;;;;31.88;18.05;;;;;;;;;;5083625;28;20035;-55
2022/03/25 11:58:32;;;;;;;36.20;19.40;;;;;;;;;;5095446;28;20020;-56
2022/03/25 12:01:02;;;;;;;34.78;18.95;;;;;;;;;;5097151;28;20455;-56
2022/03/25 12:03:52;;;;;;;32.38;19.00;;;;;;;;;;5092010;28;20066;-56
2022/03/25 12:06:18;;;;;;;33.30;19.90;;;;;;;;;;5092747;28;20039;-56
2022/03/25 12:08:56;;;;;;;32.72;19.70;;;;;;;;;;5095552;28;20024;-56
2022/03/25 12:11:41;;;;;;;34.50;19.65;;;;;;;;;;5097937;28;20160;-56
2022/03/25 12:14:08;;;;;;;31.65;20.08;;;;;;;;;;5097218;28;20040;-56
2022/03/25 12:16:49;;;;;;;33.53;19.00;;;;;;;;;;5098724;28;20027;-56
2022/03/25 12:19:28;;;;;;;32.53;20.13;;;;;;;;;;5113633;27;20040;-55
2022/03/25 12:21:54;;;;;;;31.35;18.52;;;;;;;;;;5093020;28;20088;-56
2022/03/25 12:24:21;;;;;;;27.25;16.27;;;;;;;;;;5096394;28;20038;-55
2022/03/25 12:26:54;;;;;;;35.63;17.00;;;;;;;;;;5096003;28;20028;-56
2022/03/25 12:29:27;;;;;;;31.90;18.58;;;;;;;;;;5113136;27;20044;-55
2022/03/25 12:31:53;;;;;;;35.13;17.85;;;;;;;;;;5098982;28;20447;-55
2022/03/25 12:34:29;;;;;;;34.15;17.65;;;;;;;;;;5098026;28;20055;-55
2022/03/25 12:36:57;;;;;;;32.45;18.63;;;;;;;;;;5085894;28;20024;-55
2022/03/25 12:39:23;;;;;;;32.95;17.75;;;;;;;;;;5098838;27;20011;-56
2022/03/25 12:41:51;;;;;;;31.05;18.50;;;;;;;;;;5096752;28;20453;-56
2022/03/25 12:44:25;;;;;;;34.17;19.02;;;;;;;;;;5099743;28;20023;-56
2022/03/25 12:46:52;;;;;;;32.47;18.85;;;;;;;;;;5096504;28;20553;-55
2022/03/25 12:49:18;;;;;;;30.63;18.27;;;;;;;;;;5093880;28;20104;-56
2022/03/25 12:51:55;;;;;;;24.67;16.38;;;;;;;;;;5100699;28;20031;-57
2022/03/25 12:54:21;;;;;;;28.50;16.13;;;;;;;;;;5096379;28;20047;-56
2022/03/25 12:56:57;;;;;;;30.55;16.52;;;;;;;;;;5093722;28;20358;-56
2022/03/25 12:59:29;;;;;;;33.45;16.55;;;;;;;;;;5098311;28;20034;-58
2022/03/25 13:01:55;;;;;;;29.23;16.63;;;;;;;;;;5098673;28;20032;-55
2022/03/25 13:04:31;;;;;;;31.35;17.05;;;;;;;;;;5094064;28;20046;-56
2022/03/25 13:06:58;;;;;;;27.38;15.20;;;;;;;;;;5096305;28;20031;-55
2022/03/25 13:09:24;;;;;;;27.02;15.63;;;;;;;;;;5096307;28;20131;-55
2022/03/25 13:11:58;;;;;;;29.85;16.15;;;;;;;;;;5096827;28;20163;-56
2022/03/25 13:14:24;;;;;;;26.00;15.15;;;;;;;;;;5099605;28;20042;-56
2022/03/25 13:16:50;;;;;;;33.10;16.35;;;;;;;;;;5093254;28;20020;-57
2022/03/25 13:19:16;;;;;;;29.40;16.45;;;;;;;;;;5098946;28;20329;-56
2022/03/25 13:21:43;;;;;;;27.83;16.15;;;;;;;;;;5100012;28;20034;-56
2022/03/25 13:24:09;;;;;;;30.27;16.55;;;;;;;;;;5091537;28;20067;-56
2022/03/25 13:26:37;;;;;;;29.50;16.33;;;;;;;;;;5093926;28;20047;-57
2022/03/25 13:29:03;;;;;;;25.23;16.88;;;;;;;;;;5097850;28;20033;-55
2022/03/25 13:31:29;;;;;;;30.02;16.23;;;;;;;;;;5095225;28;20020;-57
2022/03/25 13:33:56;;;;;;;30.55;18.15;;;;;;;;;;5090878;28;20345;-56
2022/03/25 13:36:27;;;;;;;32.38;17.95;;;;;;;;;;5094827;28;20534;-57
2022/03/25 13:38:54;;;;;;;53.78;33.92;;;;;;;;;;5093718;28;20020;-57
2022/03/25 13:41:22;;;;;;;33.55;17.20;;;;;;;;;;5093868;28;20028;-56
2022/03/25 13:43:50;;;;;;;31.85;18.17;;;;;;;;;;5092254;28;20086;-56
2022/03/25 13:46:22;;;;;;;28.10;16.10;;;;;;;;;;5093559;28;20038;-56
2022/03/25 13:48:48;;;;;;;33.40;16.33;;;;;;;;;;5095502;28;20519;-56
2022/03/25 13:51:21;;;;;;;26.80;15.70;;;;;;;;;;5098911;28;20190;-56
2022/03/25 13:53:48;;;;;;;26.10;15.93;;;;;;;;;;5093675;28;20096;-56
2022/03/25 13:56:16;;;;;;;31.25;16.02;;;;;;;;;;5096401;27;20108;-55
2022/03/25 13:58:49;;;;;;;29.77;15.98;;;;;;;;;;5096936;28;20032;-57
2022/03/25 14:01:16;;;;;;;27.90;16.38;;;;;;;;;;5094872;28;20023;-56
2022/03/25 14:03:43;;;;;;;27.77;16.67;;;;;;;;;;5096724;28;20089;-56
2022/03/25 14:06:13;;;;;;;28.65;16.13;;;;;;;;;;5093303;28;20049;-54
2022/03/25 14:08:40;;;;;;;31.20;17.88;;;;;;;;;;5092160;28;20036;-56
2022/03/25 14:11:07;;;;;;;32.47;18.00;;;;;;;;;;5094272;28;20035;-56
2022/03/25 14:13:33;;;;;;;37.25;19.38;;;;;;;;;;5096039;28;20136;-56
2022/03/25 14:16:15;;;;;;;34.45;20.17;;;;;;;;;;5093984;28;20020;-57
2022/03/25 14:18:52;;;;;;;35.80;20.10;;;;;;;;;;5094322;28;20065;-56
2022/03/25 14:21:28;;;;;;;33.30;19.58;;;;;;;;;;5094681;28;20382;-56
2022/03/25 14:24:30;;;;;;;30.73;19.17;;;;;;;;;;5096972;28;20464;-56